Terminal Aerodrome Forecast
Issued by NWS

Home | Current Version | Previous Version | Text Only | Print | Product List | Glossary Off
Versions: 1 2 3 4 5 6 7 8 9 10 11 12 13

000
FTUS43 KBIS 150527
TAFJMS
TAF
KJMS 150527Z 1506/1606 30005KT P6SM SKC
     FM151000 23005KT P6SM FEW060 FEW250
     FM151500 25008KT P6SM SCT050 BKN080
     FM151900 30015G22KT P6SM FEW050 FEW150
     FM160000 30009KT P6SM SKC
     FM160300 27006KT P6SM SKC=

USA.gov is the U.S. government's official web portal to all federal, state and local government web resources and services.